sensor_id;sensor_type;location;lat;lon;timestamp;pressure;altitude;pressure_sealevel;temperature;humidity
33185;BME280;19550;42.872;25.494;2023-04-27T00:00:58;95960.47;;;9.04;100.00
33185;BME280;19550;42.872;25.494;2023-04-27T00:03:27;95963.88;;;8.93;100.00
33185;BME280;19550;42.872;25.494;2023-04-27T00:05:53;95963.88;;;8.84;100.00
33185;BME280;19550;42.872;25.494;2023-04-27T00:08:20;95958.19;;;8.89;100.00
33185;BME280;19550;42.872;25.494;2023-04-27T00:10:47;95976.06;;;8.92;100.00
33185;BME280;19550;42.872;25.494;2023-04-27T00:13:14;95974.56;;;8.86;100.00
33185;BME280;19550;42.872;25.494;2023-04-27T00:15:40;95968.34;;;8.71;100.00
33185;BME280;19550;42.872;25.494;2023-04-27T00:18:09;95968.22;;;8.76;100.00
33185;BME280;19550;42.872;25.494;2023-04-27T00:20:38;95976.16;;;8.78;100.00
33185;BME280;19550;42.872;25.494;2023-04-27T00:23:05;95980.41;;;8.75;100.00
33185;BME280;19550;42.872;25.494;2023-04-27T00:25:32;95981.34;;;8.71;100.00
33185;BME280;19550;42.872;25.494;2023-04-27T00:27:59;95985.53;;;8.60;100.00
33185;BME280;19550;42.872;25.494;2023-04-27T00:30:26;95982.25;;;8.58;100.00
33185;BME280;19550;42.872;25.494;2023-04-27T00:32:53;95991.06;;;8.60;100.00
33185;BME280;19550;42.872;25.494;2023-04-27T00:35:19;95990.06;;;8.56;100.00
33185;BME280;19550;42.872;25.494;2023-04-27T00:37:48;95998.34;;;8.56;100.00
33185;BME280;19550;42.872;25.494;2023-04-27T00:40:15;95994.47;;;8.57;100.00
33185;BME280;19550;42.872;25.494;2023-04-27T00:42:41;95997.09;;;8.62;100.00
33185;BME280;19550;42.872;25.494;2023-04-27T00:45:09;96005.00;;;8.55;100.00
33185;BME280;19550;42.872;25.494;2023-04-27T00:47:37;96003.81;;;8.47;100.00
33185;BME280;19550;42.872;25.494;2023-04-27T00:50:05;96008.84;;;8.45;100.00
33185;BME280;19550;42.872;25.494;2023-04-27T00:52:33;96014.06;;;8.47;100.00
33185;BME280;19550;42.872;25.494;2023-04-27T00:55:03;96018.41;;;8.39;100.00
33185;BME280;19550;42.872;25.494;2023-04-27T00:57:30;96014.81;;;8.16;100.00
33185;BME280;19550;42.872;25.494;2023-04-27T00:59:59;96029.63;;;8.20;100.00
33185;BME280;19550;42.872;25.494;2023-04-27T01:02:25;96026.94;;;8.07;100.00
33185;BME280;19550;42.872;25.494;2023-04-27T01:04:52;96029.00;;;8.01;100.00
33185;BME280;19550;42.872;25.494;2023-04-27T01:07:24;96030.44;;;7.98;100.00
33185;BME280;19550;42.872;25.494;2023-04-27T01:09:50;96037.84;;;7.89;100.00
33185;BME280;19550;42.872;25.494;2023-04-27T01:12:18;96047.16;;;7.80;100.00
33185;BME280;19550;42.872;25.494;2023-04-27T01:14:45;96046.25;;;7.84;100.00
33185;BME280;19550;42.872;25.494;2023-04-27T01:17:12;96046.34;;;7.79;100.00
33185;BME280;19550;42.872;25.494;2023-04-27T01:19:39;96047.03;;;7.85;100.00
33185;BME280;19550;42.872;25.494;2023-04-27T01:22:06;96043.09;;;7.77;100.00
33185;BME280;19550;42.872;25.494;2023-04-27T01:24:35;96057.22;;;7.76;100.00
33185;BME280;19550;42.872;25.494;2023-04-27T01:27:02;96050.66;;;7.72;100.00
33185;BME280;19550;42.872;25.494;2023-04-27T01:29:29;96058.31;;;7.75;100.00
33185;BME280;19550;42.872;25.494;2023-04-27T01:31:56;96056.31;;;7.67;100.00
33185;BME280;19550;42.872;25.494;2023-04-27T01:34:22;96061.81;;;7.67;100.00
33185;BME280;19550;42.872;25.494;2023-04-27T01:36:49;96058.97;;;7.58;100.00
33185;BME280;19550;42.872;25.494;2023-04-27T01:39:16;96059.38;;;7.65;100.00
33185;BME280;19550;42.872;25.494;2023-04-27T01:41:44;96064.91;;;7.51;100.00
33185;BME280;19550;42.872;25.494;2023-04-27T01:44:11;96065.03;;;7.46;100.00
33185;BME280;19550;42.872;25.494;2023-04-27T01:46:38;96066.97;;;7.46;100.00
33185;BME280;19550;42.872;25.494;2023-04-27T01:49:05;96070.47;;;7.38;100.00
33185;BME280;19550;42.872;25.494;2023-04-27T01:51:32;96072.81;;;7.44;100.00
33185;BME280;19550;42.872;25.494;2023-04-27T01:53:59;96087.09;;;7.46;100.00
33185;BME280;19550;42.872;25.494;2023-04-27T01:56:25;96077.38;;;7.49;100.00
33185;BME280;19550;42.872;25.494;2023-04-27T01:58:54;96079.72;;;7.55;100.00
33185;BME280;19550;42.872;25.494;2023-04-27T02:01:20;96072.69;;;7.49;100.00
33185;BME280;19550;42.872;25.494;2023-04-27T02:03:47;96066.56;;;7.39;100.00
33185;BME280;19550;42.872;25.494;2023-04-27T02:06:14;96082.47;;;7.55;100.00
33185;BME280;19550;42.872;25.494;2023-04-27T02:08:41;96085.75;;;7.57;100.00
33185;BME280;19550;42.872;25.494;2023-04-27T02:11:08;96082.00;;;7.40;100.00
33185;BME280;19550;42.872;25.494;2023-04-27T02:13:34;96085.16;;;7.33;100.00
33185;BME280;19550;42.872;25.494;2023-04-27T02:16:03;96081.50;;;7.38;100.00
33185;BME280;19550;42.872;25.494;2023-04-27T02:18:30;96082.91;;;7.49;100.00
33185;BME280;19550;42.872;25.494;2023-04-27T02:20:58;96081.69;;;7.41;100.00
33185;BME280;19550;42.872;25.494;2023-04-27T02:23:25;96080.34;;;7.39;100.00
33185;BME280;19550;42.872;25.494;2023-04-27T02:25:52;96086.81;;;7.21;100.00
33185;BME280;19550;42.872;25.494;2023-04-27T02:28:18;96090.28;;;7.12;100.00
33185;BME280;19550;42.872;25.494;2023-04-27T02:30:45;96086.41;;;7.13;100.00
33185;BME280;19550;42.872;25.494;2023-04-27T02:33:14;96090.78;;;7.14;100.00
33185;BME280;19550;42.872;25.494;2023-04-27T02:35:40;96098.03;;;6.97;100.00
33185;BME280;19550;42.872;25.494;2023-04-27T02:38:07;96083.13;;;6.84;100.00
33185;BME280;19550;42.872;25.494;2023-04-27T02:40:34;96087.50;;;6.99;100.00
33185;BME280;19550;42.872;25.494;2023-04-27T02:43:01;96095.78;;;6.99;100.00
33185;BME280;19550;42.872;25.494;2023-04-27T02:45:28;96093.53;;;7.01;100.00
33185;BME280;19550;42.872;25.494;2023-04-27T02:47:55;96100.06;;;7.05;100.00
33185;BME280;19550;42.872;25.494;2023-04-27T02:50:24;96102.22;;;6.94;100.00
33185;BME280;19550;42.872;25.494;2023-04-27T02:52:50;96097.72;;;6.98;100.00
33185;BME280;19550;42.872;25.494;2023-04-27T02:55:17;96099.69;;;6.98;100.00
33185;BME280;19550;42.872;25.494;2023-04-27T02:57:45;96098.75;;;7.02;100.00
33185;BME280;19550;42.872;25.494;2023-04-27T03:00:13;96102.50;;;7.06;100.00
33185;BME280;19550;42.872;25.494;2023-04-27T03:02:40;96104.56;;;7.01;100.00
33185;BME280;19550;42.872;25.494;2023-04-27T03:05:07;96121.19;;;6.96;100.00
33185;BME280;19550;42.872;25.494;2023-04-27T03:07:36;96115.69;;;6.96;100.00
33185;BME280;19550;42.872;25.494;2023-04-27T03:10:04;96122.31;;;6.95;100.00
33185;BME280;19550;42.872;25.494;2023-04-27T03:12:31;96120.16;;;6.92;100.00
33185;BME280;19550;42.872;25.494;2023-04-27T03:14:58;96122.53;;;6.85;100.00
33185;BME280;19550;42.872;25.494;2023-04-27T03:17:25;96121.31;;;6.91;100.00
33185;BME280;19550;42.872;25.494;2023-04-27T03:19:52;96126.00;;;6.90;100.00
33185;BME280;19550;42.872;25.494;2023-04-27T03:22:19;96139.03;;;6.98;100.00
33185;BME280;19550;42.872;25.494;2023-04-27T03:24:47;96126.09;;;6.99;100.00
33185;BME280;19550;42.872;25.494;2023-04-27T03:27:14;96134.75;;;7.06;100.00
33185;BME280;19550;42.872;25.494;2023-04-27T03:29:40;96130.78;;;6.98;100.00
33185;BME280;19550;42.872;25.494;2023-04-27T03:32:07;96137.09;;;6.99;100.00
33185;BME280;19550;42.872;25.494;2023-04-27T03:34:34;96132.34;;;7.04;100.00
33185;BME280;19550;42.872;25.494;2023-04-27T03:37:01;96141.63;;;7.08;100.00
33185;BME280;19550;42.872;25.494;2023-04-27T03:39:28;96142.72;;;7.07;100.00
33185;BME280;19550;42.872;25.494;2023-04-27T03:41:56;96140.81;;;7.08;100.00
33185;BME280;19550;42.872;25.494;2023-04-27T03:44:23;96148.25;;;7.07;100.00
33185;BME280;19550;42.872;25.494;2023-04-27T03:46:50;96147.66;;;7.24;100.00
33185;BME280;19550;42.872;25.494;2023-04-27T03:49:17;96146.72;;;7.15;100.00
33185;BME280;19550;42.872;25.494;2023-04-27T03:51:43;96141.81;;;7.12;100.00
33185;BME280;19550;42.872;25.494;2023-04-27T03:54:10;96150.91;;;7.12;100.00
33185;BME280;19550;42.872;25.494;2023-04-27T03:56:37;96143.34;;;7.18;100.00
33185;BME280;19550;42.872;25.494;2023-04-27T03:59:05;96150.59;;;7.14;100.00
33185;BME280;19550;42.872;25.494;2023-04-27T04:01:32;96148.53;;;7.06;100.00
33185;BME280;19550;42.872;25.494;2023-04-27T04:03:59;96158.56;;;7.02;100.00
33185;BME280;19550;42.872;25.494;2023-04-27T04:06:26;96157.59;;;6.93;100.00
33185;BME280;19550;42.872;25.494;2023-04-27T04:08:53;96161.19;;;6.93;100.00
33185;BME280;19550;42.872;25.494;2023-04-27T04:11:20;96165.56;;;6.94;100.00
33185;BME280;19550;42.872;25.494;2023-04-27T04:13:48;96160.88;;;6.95;100.00
33185;BME280;19550;42.872;25.494;2023-04-27T04:16:16;96162.22;;;6.97;100.00
33185;BME280;19550;42.872;25.494;2023-04-27T04:18:43;96164.66;;;6.99;100.00
33185;BME280;19550;42.872;25.494;2023-04-27T04:21:10;96168.47;;;7.03;100.00
33185;BME280;19550;42.872;25.494;2023-04-27T04:23:37;96175.81;;;7.07;100.00
33185;BME280;19550;42.872;25.494;2023-04-27T04:26:05;96171.81;;;7.13;100.00
33185;BME280;19550;42.872;25.494;2023-04-27T04:28:33;96173.06;;;7.21;100.00
33185;BME280;19550;42.872;25.494;2023-04-27T04:31:00;96170.91;;;7.18;100.00
33185;BME280;19550;42.872;25.494;2023-04-27T04:33:29;96169.38;;;7.12;100.00
33185;BME280;19550;42.872;25.494;2023-04-27T04:35:56;96179.19;;;7.18;100.00
33185;BME280;19550;42.872;25.494;2023-04-27T04:38:23;96171.84;;;7.27;100.00
33185;BME280;19550;42.872;25.494;2023-04-27T04:40:50;96181.34;;;7.35;100.00
33185;BME280;19550;42.872;25.494;2023-04-27T04:43:17;96178.69;;;7.30;100.00
33185;BME280;19550;42.872;25.494;2023-04-27T04:45:44;96177.34;;;7.27;100.00
33185;BME280;19550;42.872;25.494;2023-04-27T04:48:13;96179.53;;;7.30;100.00
33185;BME280;19550;42.872;25.494;2023-04-27T04:50:42;96175.00;;;7.34;100.00
33185;BME280;19550;42.872;25.494;2023-04-27T04:53:08;96182.69;;;7.37;100.00
33185;BME280;19550;42.872;25.494;2023-04-27T04:55:35;96190.84;;;7.42;100.00
33185;BME280;19550;42.872;25.494;2023-04-27T04:58:02;96186.16;;;7.43;100.00
33185;BME280;19550;42.872;25.494;2023-04-27T05:00:29;96190.84;;;7.42;100.00
33185;BME280;19550;42.872;25.494;2023-04-27T05:02:56;96196.25;;;7.47;100.00
33185;BME280;19550;42.872;25.494;2023-04-27T05:05:23;96197.28;;;7.51;100.00
33185;BME280;19550;42.872;25.494;2023-04-27T05:07:51;96203.84;;;7.55;100.00
33185;BME280;19550;42.872;25.494;2023-04-27T05:10:18;96203.00;;;7.55;100.00
33185;BME280;19550;42.872;25.494;2023-04-27T05:12:44;96204.75;;;7.51;100.00
33185;BME280;19550;42.872;25.494;2023-04-27T05:15:11;96206.06;;;7.53;100.00
33185;BME280;19550;42.872;25.494;2023-04-27T05:17:38;96206.78;;;7.45;100.00
33185;BME280;19550;42.872;25.494;2023-04-27T05:20:06;96202.59;;;7.48;100.00
33185;BME280;19550;42.872;25.494;2023-04-27T05:22:34;96209.75;;;7.49;100.00
33185;BME280;19550;42.872;25.494;2023-04-27T05:25:02;96208.00;;;7.53;100.00
33185;BME280;19550;42.872;25.494;2023-04-27T05:27:29;96215.03;;;7.45;100.00
33185;BME280;19550;42.872;25.494;2023-04-27T05:29:56;96206.78;;;7.45;100.00
33185;BME280;19550;42.872;25.494;2023-04-27T05:32:23;96216.97;;;7.45;100.00
33185;BME280;19550;42.872;25.494;2023-04-27T05:34:50;96212.50;;;7.49;100.00
33185;BME280;19550;42.872;25.494;2023-04-27T05:37:17;96214.88;;;7.55;100.00
33185;BME280;19550;42.872;25.494;2023-04-27T05:39:44;96216.38;;;7.48;100.00
33185;BME280;19550;42.872;25.494;2023-04-27T05:42:12;96213.63;;;7.48;100.00
33185;BME280;19550;42.872;25.494;2023-04-27T05:44:39;96207.91;;;7.44;100.00
33185;BME280;19550;42.872;25.494;2023-04-27T05:47:06;96214.56;;;7.43;100.00
33185;BME280;19550;42.872;25.494;2023-04-27T05:49:32;96219.34;;;7.51;100.00
33185;BME280;19550;42.872;25.494;2023-04-27T05:51:59;96222.22;;;7.60;100.00
33185;BME280;19550;42.872;25.494;2023-04-27T05:54:27;96219.88;;;7.67;100.00
33185;BME280;19550;42.872;25.494;2023-04-27T05:56:53;96226.00;;;7.78;100.00
33185;BME280;19550;42.872;25.494;2023-04-27T05:59:22;96231.59;;;7.73;100.00
33185;BME280;19550;42.872;25.494;2023-04-27T06:01:48;96230.38;;;7.79;100.00
33185;BME280;19550;42.872;25.494;2023-04-27T06:04:15;96217.81;;;7.73;100.00
33185;BME280;19550;42.872;25.494;2023-04-27T06:06:42;96228.25;;;7.89;100.00
33185;BME280;19550;42.872;25.494;2023-04-27T06:09:10;96232.22;;;7.97;100.00
33185;BME280;19550;42.872;25.494;2023-04-27T06:11:36;96243.97;;;7.89;100.00
33185;BME280;19550;42.872;25.494;2023-04-27T06:14:03;96233.34;;;7.96;100.00
33185;BME280;19550;42.872;25.494;2023-04-27T06:16:32;96236.41;;;7.94;100.00
33185;BME280;19550;42.872;25.494;2023-04-27T06:18:58;96238.75;;;7.87;100.00
33185;BME280;19550;42.872;25.494;2023-04-27T06:21:25;96236.00;;;7.74;100.00
33185;BME280;19550;42.872;25.494;2023-04-27T06:23:52;96242.56;;;7.78;100.00
33185;BME280;19550;42.872;25.494;2023-04-27T06:26:19;96250.72;;;7.69;100.00
33185;BME280;19550;42.872;25.494;2023-04-27T06:28:46;96247.97;;;7.69;100.00
33185;BME280;19550;42.872;25.494;2023-04-27T06:31:12;96248.25;;;7.68;100.00
33185;BME280;19550;42.872;25.494;2023-04-27T06:33:40;96244.78;;;7.62;100.00
33185;BME280;19550;42.872;25.494;2023-04-27T06:36:07;96246.63;;;7.53;100.00
33185;BME280;19550;42.872;25.494;2023-04-27T06:38:35;96244.56;;;7.58;100.00
33185;BME280;19550;42.872;25.494;2023-04-27T06:41:01;96253.25;;;7.66;100.00
33185;BME280;19550;42.872;25.494;2023-04-27T06:43:28;96251.63;;;7.51;100.00
33185;BME280;19550;42.872;25.494;2023-04-27T06:45:55;96259.28;;;7.54;100.00
33185;BME280;19550;42.872;25.494;2023-04-27T06:48:22;96248.47;;;7.57;100.00
33185;BME280;19550;42.872;25.494;2023-04-27T06:50:50;96260.00;;;7.59;100.00
33185;BME280;19550;42.872;25.494;2023-04-27T06:53:17;96263.97;;;7.53;100.00
33185;BME280;19550;42.872;25.494;2023-04-27T06:55:44;96256.22;;;7.55;100.00
33185;BME280;19550;42.872;25.494;2023-04-27T06:58:11;96262.16;;;7.63;100.00
33185;BME280;19550;42.872;25.494;2023-04-27T07:00:37;96260.72;;;7.79;100.00
33185;BME280;19550;42.872;25.494;2023-04-27T07:03:04;96266.97;;;7.71;100.00
33185;BME280;19550;42.872;25.494;2023-04-27T07:05:33;96271.34;;;7.72;100.00
33185;BME280;19550;42.872;25.494;2023-04-27T07:08:01;96265.22;;;7.75;100.00
33185;BME280;19550;42.872;25.494;2023-04-27T07:10:28;96264.22;;;7.84;100.00
33185;BME280;19550;42.872;25.494;2023-04-27T07:12:55;96260.84;;;7.87;100.00
33185;BME280;19550;42.872;25.494;2023-04-27T07:15:22;96267.88;;;7.93;100.00
33185;BME280;19550;42.872;25.494;2023-04-27T07:17:50;96267.06;;;7.93;100.00
33185;BME280;19550;42.872;25.494;2023-04-27T07:20:18;96260.13;;;7.95;100.00
33185;BME280;19550;42.872;25.494;2023-04-27T07:22:45;96259.72;;;8.02;100.00
33185;BME280;19550;42.872;25.494;2023-04-27T07:25:13;96256.97;;;8.02;100.00
33185;BME280;19550;42.872;25.494;2023-04-27T07:27:40;96270.34;;;7.95;100.00
33185;BME280;19550;42.872;25.494;2023-04-27T07:30:07;96255.19;;;8.06;100.00
33185;BME280;19550;42.872;25.494;2023-04-27T07:32:38;96260.00;;;8.14;100.00
33185;BME280;19550;42.872;25.494;2023-04-27T07:35:05;96259.50;;;8.12;100.00
33185;BME280;19550;42.872;25.494;2023-04-27T07:37:33;96256.25;;;8.10;100.00
33185;BME280;19550;42.872;25.494;2023-04-27T07:40:01;96262.75;;;8.14;100.00
33185;BME280;19550;42.872;25.494;2023-04-27T07:42:31;96264.59;;;8.05;100.00
33185;BME280;19550;42.872;25.494;2023-04-27T07:44:58;96264.59;;;8.05;100.00
33185;BME280;19550;42.872;25.494;2023-04-27T07:47:25;96265.41;;;8.06;100.00
33185;BME280;19550;42.872;25.494;2023-04-27T07:49:52;96268.28;;;8.14;100.00
33185;BME280;19550;42.872;25.494;2023-04-27T07:52:20;96274.22;;;8.21;100.00
33185;BME280;19550;42.872;25.494;2023-04-27T07:54:46;96264.09;;;8.17;100.00
33185;BME280;19550;42.872;25.494;2023-04-27T07:57:13;96260.59;;;8.25;100.00
33185;BME280;19550;42.872;25.494;2023-04-27T07:59:41;96268.28;;;8.42;100.00
33185;BME280;19550;42.872;25.494;2023-04-27T08:02:08;96268.84;;;8.52;100.00
33185;BME280;19550;42.872;25.494;2023-04-27T08:04:35;96268.63;;;8.62;100.00
33185;BME280;19550;42.872;25.494;2023-04-27T08:07:02;96279.19;;;8.60;100.00
33185;BME280;19550;42.872;25.494;2023-04-27T08:09:29;96280.94;;;8.56;100.00
33185;BME280;19550;42.872;25.494;2023-04-27T08:11:57;96279.09;;;8.52;100.00
33185;BME280;19550;42.872;25.494;2023-04-27T08:14:24;96288.88;;;8.58;100.00
33185;BME280;19550;42.872;25.494;2023-04-27T08:16:52;96282.50;;;8.49;100.00
33185;BME280;19550;42.872;25.494;2023-04-27T08:19:19;96283.78;;;8.51;100.00
33185;BME280;19550;42.872;25.494;2023-04-27T08:21:46;96279.28;;;8.55;100.00
33185;BME280;19550;42.872;25.494;2023-04-27T08:24:12;96276.22;;;8.57;100.00
33185;BME280;19550;42.872;25.494;2023-04-27T08:26:39;96283.38;;;8.58;100.00
33185;BME280;19550;42.872;25.494;2023-04-27T08:29:06;96282.06;;;8.55;100.00
33185;BME280;19550;42.872;25.494;2023-04-27T08:31:33;96278.78;;;8.53;100.00
33185;BME280;19550;42.872;25.494;2023-04-27T08:34:01;96283.78;;;8.51;100.00
33185;BME280;19550;42.872;25.494;2023-04-27T08:36:28;96279.47;;;8.59;100.00
33185;BME280;19550;42.872;25.494;2023-04-27T08:38:56;96288.41;;;8.56;100.00
33185;BME280;19550;42.872;25.494;2023-04-27T08:41:23;96285.22;;;8.62;100.00
33185;BME280;19550;42.872;25.494;2023-04-27T08:43:50;96292.16;;;8.60;100.00
33185;BME280;19550;42.872;25.494;2023-04-27T08:46:18;96287.47;;;8.60;100.00
33185;BME280;19550;42.872;25.494;2023-04-27T08:48:45;96283.88;;;8.60;100.00
33185;BME280;19550;42.872;25.494;2023-04-27T08:51:15;96279.19;;;8.60;100.00
33185;BME280;19550;42.872;25.494;2023-04-27T08:53:47;96276.94;;;8.62;100.00
33185;BME280;19550;42.872;25.494;2023-04-27T08:56:14;96274.13;;;8.76;100.00
33185;BME280;19550;42.872;25.494;2023-04-27T08:58:41;96274.94;;;8.76;100.00
33185;BME280;19550;42.872;25.494;2023-04-27T09:01:08;96272.50;;;8.75;100.00
33185;BME280;19550;42.872;25.494;2023-04-27T09:03:35;96269.09;;;8.78;100.00
33185;BME280;19550;42.872;25.494;2023-04-27T09:06:03;96270.25;;;8.77;100.00
33185;BME280;19550;42.872;25.494;2023-04-27T09:08:42;96264.38;;;8.78;100.00
33185;BME280;19550;42.872;25.494;2023-04-27T09:11:09;96266.59;;;8.90;100.00
33185;BME280;19550;42.872;25.494;2023-04-27T09:13:36;96273.44;;;8.93;100.00
33185;BME280;19550;42.872;25.494;2023-04-27T09:16:03;96264.84;;;8.94;100.00
33185;BME280;19550;42.872;25.494;2023-04-27T09:18:34;96257.75;;;9.02;100.00
33185;BME280;19550;42.872;25.494;2023-04-27T09:21:02;96270.63;;;9.29;100.00
33185;BME280;19550;42.872;25.494;2023-04-27T09:23:30;96266.19;;;9.50;100.00
33185;BME280;19550;42.872;25.494;2023-04-27T09:26:00;96260.38;;;9.60;100.00
33185;BME280;19550;42.872;25.494;2023-04-27T09:28:28;96256.47;;;9.61;100.00
33185;BME280;19550;42.872;25.494;2023-04-27T09:30:57;96256.16;;;9.63;100.00
33185;BME280;19550;42.872;25.494;2023-04-27T09:33:26;96258.88;;;9.54;100.00
33185;BME280;19550;42.872;25.494;2023-04-27T09:35:53;96257.09;;;9.58;100.00
33185;BME280;19550;42.872;25.494;2023-04-27T09:38:21;96256.84;;;9.68;100.00
33185;BME280;19550;42.872;25.494;2023-04-27T09:40:50;96261.00;;;9.88;100.00
33185;BME280;19550;42.872;25.494;2023-04-27T09:43:19;96259.88;;;9.97;100.00
33185;BME280;19550;42.872;25.494;2023-04-27T09:45:47;96248.19;;;10.01;100.00
33185;BME280;19550;42.872;25.494;2023-04-27T09:48:14;96247.50;;;9.95;100.00
33185;BME280;19550;42.872;25.494;2023-04-27T09:50:41;96248.00;;;9.97;100.00
33185;BME280;19550;42.872;25.494;2023-04-27T09:53:10;96247.78;;;9.85;100.00
33185;BME280;19550;42.872;25.494;2023-04-27T09:55:40;96245.16;;;9.80;100.00
33185;BME280;19550;42.872;25.494;2023-04-27T09:58:28;96241.56;;;9.79;100.00
33185;BME280;19550;42.872;25.494;2023-04-27T10:01:04;96247.78;;;9.85;100.00
33185;BME280;19550;42.872;25.494;2023-04-27T10:03:42;96241.13;;;9.86;100.00
33185;BME280;19550;42.872;25.494;2023-04-27T10:06:40;96237.44;;;10.08;100.00
33185;BME280;19550;42.872;25.494;2023-04-27T10:09:11;96229.50;;;10.15;100.00
33185;BME280;19550;42.872;25.494;2023-04-27T10:11:41;96228.25;;;10.29;100.00
33185;BME280;19550;42.872;25.494;2023-04-27T10:14:16;96229.41;;;10.54;100.00
33185;BME280;19550;42.872;25.494;2023-04-27T10:16:44;96223.06;;;10.80;100.00
33185;BME280;19550;42.872;25.494;2023-04-27T10:19:12;96231.53;;;11.00;100.00
33185;BME280;19550;42.872;25.494;2023-04-27T10:21:50;96233.97;;;11.10;100.00
33185;BME280;19550;42.872;25.494;2023-04-27T10:24:18;96231.19;;;11.10;100.00
33185;BME280;19550;42.872;25.494;2023-04-27T10:26:46;96245.41;;;11.00;100.00
33185;BME280;19550;42.872;25.494;2023-04-27T10:29:14;96240.00;;;11.04;100.00
33185;BME280;19550;42.872;25.494;2023-04-27T10:31:43;96241.50;;;11.01;100.00
33185;BME280;19550;42.872;25.494;2023-04-27T10:34:15;96239.38;;;11.15;100.00
33185;BME280;19550;42.872;25.494;2023-04-27T10:36:42;96238.38;;;11.11;100.00
33185;BME280;19550;42.872;25.494;2023-04-27T10:39:16;96238.53;;;11.24;100.00
33185;BME280;19550;42.872;25.494;2023-04-27T10:41:50;96246.03;;;11.32;100.00
33185;BME280;19550;42.872;25.494;2023-04-27T10:44:25;96238.13;;;11.60;100.00
33185;BME280;19550;42.872;25.494;2023-04-27T10:46:53;96232.03;;;11.83;100.00
33185;BME280;19550;42.872;25.494;2023-04-27T10:49:21;96236.41;;;11.93;100.00
33185;BME280;19550;42.872;25.494;2023-04-27T10:51:49;96239.69;;;11.86;100.00
33185;BME280;19550;42.872;25.494;2023-04-27T10:54:16;96234.84;;;11.75;100.00
33185;BME280;19550;42.872;25.494;2023-04-27T10:56:43;96235.47;;;11.80;100.00
33185;BME280;19550;42.872;25.494;2023-04-27T10:59:10;96233.31;;;11.86;100.00
33185;BME280;19550;42.872;25.494;2023-04-27T11:01:39;96223.09;;;12.07;100.00
33185;BME280;19550;42.872;25.494;2023-04-27T11:04:06;96219.56;;;12.27;100.00
33185;BME280;19550;42.872;25.494;2023-04-27T11:06:41;96222.91;;;12.83;100.00
33185;BME280;19550;42.872;25.494;2023-04-27T11:09:08;96220.34;;;13.52;99.62
33185;BME280;19550;42.872;25.494;2023-04-27T11:11:36;96211.16;;;14.33;97.81
33185;BME280;19550;42.872;25.494;2023-04-27T11:14:03;96216.59;;;13.93;84.20
33185;BME280;19550;42.872;25.494;2023-04-27T11:16:31;96215.63;;;13.77;88.32
33185;BME280;19550;42.872;25.494;2023-04-27T11:19:04;96213.34;;;13.34;87.28
33185;BME280;19550;42.872;25.494;2023-04-27T11:21:31;96222.59;;;13.26;87.94
33185;BME280;19550;42.872;25.494;2023-04-27T11:24:02;96223.69;;;13.13;90.82
33185;BME280;19550;42.872;25.494;2023-04-27T11:26:30;96223.50;;;13.30;87.88
33185;BME280;19550;42.872;25.494;2023-04-27T11:28:58;96226.25;;;13.18;87.09
33185;BME280;19550;42.872;25.494;2023-04-27T11:31:26;96232.28;;;12.99;88.13
33185;BME280;19550;42.872;25.494;2023-04-27T11:33:53;96227.22;;;12.81;86.34
33185;BME280;19550;42.872;25.494;2023-04-27T11:36:22;96238.88;;;12.74;90.72
33185;BME280;19550;42.872;25.494;2023-04-27T11:38:56;96233.09;;;12.79;87.33
33185;BME280;19550;42.872;25.494;2023-04-27T11:41:32;96235.31;;;13.15;90.14
33185;BME280;19550;42.872;25.494;2023-04-27T11:44:03;96237.47;;;12.89;86.53
33185;BME280;19550;42.872;25.494;2023-04-27T11:46:33;96240.53;;;12.96;86.15
33185;BME280;19550;42.872;25.494;2023-04-27T11:49:02;96235.59;;;12.51;84.93
33185;BME280;19550;42.872;25.494;2023-04-27T11:51:31;96238.25;;;12.48;84.60
33185;BME280;19550;42.872;25.494;2023-04-27T11:54:02;96228.56;;;12.54;86.25
33185;BME280;19550;42.872;25.494;2023-04-27T11:56:37;96243.94;;;12.51;90.50
33185;BME280;19550;42.872;25.494;2023-04-27T11:59:05;96240.66;;;12.28;89.36
33185;BME280;19550;42.872;25.494;2023-04-27T12:01:32;96235.31;;;12.44;91.92
33185;BME280;19550;42.872;25.494;2023-04-27T12:04:00;96243.72;;;12.36;90.04
33185;BME280;19550;42.872;25.494;2023-04-27T12:06:28;96238.28;;;12.39;91.46
33185;BME280;19550;42.872;25.494;2023-04-27T12:08:56;96246.19;;;11.99;91.71
33185;BME280;19550;42.872;25.494;2023-04-27T12:11:25;96239.34;;;11.97;91.14
33185;BME280;19550;42.872;25.494;2023-04-27T12:13:52;96249.41;;;12.10;95.66
33185;BME280;19550;42.872;25.494;2023-04-27T12:16:19;96243.19;;;12.13;96.85
33185;BME280;19550;42.872;25.494;2023-04-27T12:18:47;96242.06;;;12.05;100.00
33185;BME280;19550;42.872;25.494;2023-04-27T12:21:14;96243.59;;;11.94;99.06
33185;BME280;19550;42.872;25.494;2023-04-27T12:23:42;96233.53;;;11.81;100.00
33185;BME280;19550;42.872;25.494;2023-04-27T12:26:10;96232.06;;;11.75;100.00
33185;BME280;19550;42.872;25.494;2023-04-27T12:28:37;96238.06;;;11.85;100.00
33185;BME280;19550;42.872;25.494;2023-04-27T12:31:04;96242.16;;;11.71;100.00
33185;BME280;19550;42.872;25.494;2023-04-27T12:33:32;96244.34;;;11.57;100.00
33185;BME280;19550;42.872;25.494;2023-04-27T12:35:59;96239.81;;;11.43;100.00
33185;BME280;19550;42.872;25.494;2023-04-27T12:38:26;96233.78;;;11.41;100.00
33185;BME280;19550;42.872;25.494;2023-04-27T12:40:53;96243.88;;;11.37;100.00
33185;BME280;19550;42.872;25.494;2023-04-27T12:43:22;96238.00;;;11.47;100.00
33185;BME280;19550;42.872;25.494;2023-04-27T12:45:48;96239.31;;;11.41;100.00
33185;BME280;19550;42.872;25.494;2023-04-27T12:48:15;96234.78;;;11.20;100.00
33185;BME280;19550;42.872;25.494;2023-04-27T12:50:42;96235.06;;;11.44;100.00